Time;durP1;ratioP1;P1;durP2;ratioP2;P2;SDS_P1;SDS_P2;PMS_P1;PMS_P2;Temp;Humidity;BMP_temperature;BMP_pressure;BME280_temperature;BME280_humidity;BME280_pressure;Samples;Min_cycle;Max_cycle;Signal;HPM_P1;HPM_P2
2023/10/08 00:02:06;;;;;;;19.53;10.83;;;;;;;-143.21;47.47;72627.47;5137003;27;20210;-78
2023/10/08 00:04:37;;;;;;;21.17;10.97;;;;;;;-143.21;47.91;72635.41;5138313;27;20645;-78
2023/10/08 00:07:07;;;;;;;21.43;11.80;;;;;;;-143.21;48.29;72633.41;5137678;27;20195;-78
2023/10/08 00:09:36;;;;;;;22.00;10.37;;;;;;;-143.21;48.39;72617.56;5134058;27;20323;-78
2023/10/08 00:12:06;;;;;;;17.53;10.70;;;;;;;-143.21;48.08;72615.56;5134969;27;20649;-78
2023/10/08 00:14:43;;;;;;;20.77;10.77;;;;;;;-143.21;48.31;72611.59;5141290;27;20198;-78
2023/10/08 00:17:10;;;;;;;23.37;10.53;;;;;;;-143.21;48.39;72623.50;5142421;27;20210;-78
2023/10/08 00:19:39;;;;;;;17.73;10.43;;;;;;;-143.21;48.74;72627.47;5134090;27;20258;-77
2023/10/08 00:22:09;;;;;;;19.90;10.67;;;;;;;-143.21;49.00;72631.44;5138856;27;20309;-78
2023/10/08 00:24:40;;;;;;;17.53;10.33;;;;;;;-143.21;49.31;72631.44;5141272;27;20206;-77
2023/10/08 00:27:09;;;;;;;17.93;10.40;;;;;;;-143.21;49.43;72631.44;5134868;27;20205;-77
2023/10/08 00:29:40;;;;;;;16.30;10.10;;;;;;;-143.21;49.52;72639.38;5135822;27;20206;-77
2023/10/08 00:32:12;;;;;;;18.43;10.10;;;;;;;-143.21;49.89;72647.31;5140813;27;20711;-77
2023/10/08 00:34:42;;;;;;;18.60;9.47;;;;;;;-143.21;50.23;72657.22;5135232;27;20306;-77
2023/10/08 00:37:13;;;;;;;18.37;9.90;;;;;;;-143.21;49.85;72645.31;5136123;27;20199;-77
2023/10/08 00:39:41;;;;;;;16.23;9.47;;;;;;;-143.21;50.23;72653.25;5132440;27;20207;-77
2023/10/08 00:42:09;;;;;;;17.50;8.20;;;;;;;-143.21;50.25;72661.19;5138563;27;20198;-77
2023/10/08 00:44:47;;;;;;;11.20;6.50;;;;;;;-143.21;49.91;72669.13;5133636;27;20199;-78
2023/10/08 00:47:14;;;;;;;11.63;6.10;;;;;;;-143.21;49.69;72657.22;5141897;27;20199;-78
2023/10/08 00:49:54;;;;;;;15.07;6.43;;;;;;;-143.21;49.10;72653.25;5134069;27;20654;-77
2023/10/08 00:52:29;;;;;;;14.87;5.67;;;;;;;-143.21;49.42;72663.16;5130478;27;20250;-77
2023/10/08 00:55:07;;;;;;;10.30;6.03;;;;;;;-143.21;48.86;72661.19;5133783;27;20202;-77
2023/10/08 00:57:36;;;;;;;10.93;5.60;;;;;;;-143.21;49.07;72661.19;5131021;27;20191;-76
2023/10/08 01:00:17;;;;;;;9.63;5.53;;;;;;;-143.21;49.56;72667.13;5136560;27;20207;-77
2023/10/08 01:02:46;;;;;;;12.33;5.30;;;;;;;-143.21;49.60;72671.09;5140146;27;20707;-76
2023/10/08 01:05:17;;;;;;;11.67;5.50;;;;;;;-143.21;49.79;72671.09;5137571;27;20215;-77
2023/10/08 01:07:48;;;;;;;11.73;5.97;;;;;;;-143.21;49.44;72671.09;5129709;27;20972;-76
2023/10/08 01:10:19;;;;;;;11.00;5.40;;;;;;;-143.21;49.31;72667.13;5133576;27;20206;-76
2023/10/08 01:13:03;;;;;;;10.30;5.60;;;;;;;-143.21;49.16;72673.09;5137459;27;20199;-77
2023/10/08 01:15:35;;;;;;;11.47;5.30;;;;;;;-143.21;49.13;72677.06;5132275;27;20187;-77
2023/10/08 01:18:04;;;;;;;9.17;5.27;;;;;;;-143.21;49.34;72679.03;5136144;27;20227;-78
2023/10/08 01:20:36;;;;;;;9.73;5.50;;;;;;;-143.21;49.66;72677.06;5133279;27;20655;-79
2023/10/08 01:23:09;;;;;;;10.57;5.73;;;;;;;-143.21;49.46;72681.03;5137471;27;20281;-79
2023/10/08 01:25:39;;;;;;;11.97;5.90;;;;;;;-143.21;49.21;72688.94;5130562;27;20191;-79
2023/10/08 01:28:14;;;;;;;9.60;5.23;;;;;;;-143.21;49.31;72688.94;5138420;27;20230;-79
2023/10/08 01:30:42;;;;;;;10.33;5.47;;;;;;;-143.21;49.48;72700.84;5139720;27;20271;-79
2023/10/08 01:33:13;;;;;;;11.30;5.60;;;;;;;-143.21;50.05;72710.78;5139036;27;20245;-78
2023/10/08 01:35:40;;;;;;;10.97;5.40;;;;;;;-143.21;49.90;72722.66;5140959;27;20200;-78
2023/10/08 01:38:13;;;;;;;12.50;5.70;;;;;;;-143.21;50.03;72728.63;5135184;27;20227;-78
2023/10/08 01:40:41;;;;;;;10.37;5.63;;;;;;;-143.21;49.89;72726.63;5138974;27;20198;-78
2023/10/08 01:43:08;;;;;;;12.40;5.30;;;;;;;-143.21;50.05;72746.47;5140939;27;20287;-78
2023/10/08 01:45:40;;;;;;;10.63;5.20;;;;;;;-143.21;50.11;72734.56;5131632;27;20203;-78
2023/10/08 01:48:09;;;;;;;10.53;5.17;;;;;;;-143.21;50.20;72742.50;5141672;27;20195;-76
2023/10/08 01:50:36;;;;;;;10.23;5.37;;;;;;;-143.21;49.93;72740.53;5144843;27;20289;-76
2023/10/08 01:53:05;;;;;;;7.67;5.07;;;;;;;-143.21;49.92;72742.50;5137222;27;20348;-76
2023/10/08 01:55:45;;;;;;;8.93;5.13;;;;;;;-143.21;49.97;72740.53;5142974;27;20213;-76
2023/10/08 01:58:16;;;;;;;7.40;4.80;;;;;;;-143.21;50.28;72742.50;5134567;27;20312;-76
2023/10/08 02:00:45;;;;;;;10.93;5.73;;;;;;;-143.21;50.40;72752.41;5139916;27;20708;-76
2023/10/08 02:03:13;;;;;;;12.40;5.67;;;;;;;-143.21;50.42;72748.47;5141799;27;20220;-76
2023/10/08 02:05:41;;;;;;;11.97;5.97;;;;;;;-143.21;50.40;72750.44;5143607;27;20550;-75
2023/10/08 02:08:09;;;;;;;7.50;4.73;;;;;;;-143.21;50.65;72758.38;5144247;27;20289;-76
2023/10/08 02:10:39;;;;;;;10.53;5.23;;;;;;;-143.21;50.66;72758.38;5139512;27;20199;-76
2023/10/08 02:13:08;;;;;;;11.97;5.40;;;;;;;-143.21;51.05;72766.31;5133725;27;20592;-76
2023/10/08 02:15:36;;;;;;;9.90;5.37;;;;;;;-143.21;51.44;72766.31;5140472;27;20199;-76
2023/10/08 02:18:04;;;;;;;10.43;5.40;;;;;;;-143.21;51.79;72760.34;5132833;27;20684;-76
2023/10/08 02:20:31;;;;;;;12.77;5.37;;;;;;;-143.21;51.59;72756.38;5140938;27;20222;-75
2023/10/08 02:22:57;;;;;;;12.93;5.50;;;;;;;-143.21;51.83;72770.28;5143363;27;20208;-76
2023/10/08 02:25:24;;;;;;;13.90;5.83;;;;;;;-143.21;52.23;72782.16;5134476;27;20207;-77
2023/10/08 02:27:52;;;;;;;8.73;5.30;;;;;;;-143.21;52.29;72786.13;5136205;27;20203;-76
2023/10/08 02:30:20;;;;;;;10.57;5.57;;;;;;;-143.21;52.31;72788.13;5143493;27;20198;-77
2023/10/08 02:32:46;;;;;;;12.60;5.97;;;;;;;-143.21;52.62;72790.09;5140197;27;20249;-75
2023/10/08 02:35:13;;;;;;;12.27;6.10;;;;;;;-143.21;52.89;72784.16;5144028;27;20722;-76
2023/10/08 02:37:40;;;;;;;8.60;5.47;;;;;;;-143.21;52.99;72786.13;5134772;27;20252;-76
2023/10/08 02:40:16;;;;;;;8.47;5.80;;;;;;;-143.21;53.21;72792.09;5145134;27;20222;-75
2023/10/08 02:42:44;;;;;;;12.37;6.20;;;;;;;-143.21;53.32;72784.16;5135495;27;20202;-76
2023/10/08 02:45:13;;;;;;;13.07;5.80;;;;;;;-143.21;53.41;72794.06;5137490;27;20199;-77
2023/10/08 02:47:44;;;;;;;11.10;5.93;;;;;;;-143.21;53.54;72798.03;5134661;27;20248;-77
2023/10/08 02:50:12;;;;;;;11.67;5.77;;;;;;;-143.21;53.61;72796.06;5137533;27;20204;-76
2023/10/08 02:52:39;;;;;;;12.87;6.03;;;;;;;-143.21;53.47;72788.13;5132532;27;20263;-75
2023/10/08 02:55:18;;;;;;;8.40;6.10;;;;;;;-143.21;53.62;72800.03;5133798;27;20238;-75
2023/10/08 02:57:45;;;;;;;12.77;6.73;;;;;;;-143.21;53.78;72807.97;5139811;27;20223;-76
2023/10/08 03:00:15;;;;;;;14.53;7.17;;;;;;;-143.21;53.98;72813.91;5135475;27;20231;-76
2023/10/08 03:02:42;;;;;;;16.43;6.93;;;;;;;-143.21;54.31;72823.81;5140510;27;20210;-76
2023/10/08 03:05:13;;;;;;;14.47;7.40;;;;;;;-143.21;54.46;72827.78;5145304;27;20664;-76
2023/10/08 03:07:40;;;;;;;16.50;8.67;;;;;;;-143.21;54.62;72827.78;5133585;27;20206;-76
2023/10/08 03:10:17;;;;;;;18.30;9.63;;;;;;;-143.21;54.72;72835.72;5134302;27;20669;-76
2023/10/08 03:12:46;;;;;;;11.77;7.17;;;;;;;-143.21;53.82;72833.75;5136490;27;20729;-76
2023/10/08 03:15:28;;;;;;;12.17;7.53;;;;;;;-143.21;53.52;72819.84;5146054;27;20206;-76
2023/10/08 03:17:57;;;;;;;11.37;6.70;;;;;;;-143.21;53.62;72807.97;5129685;27;20203;-76
2023/10/08 03:20:38;;;;;;;14.67;7.20;;;;;;;-143.21;53.25;72813.91;5136965;27;20222;-76
2023/10/08 03:23:11;;;;;;;17.43;8.60;;;;;;;-143.21;53.85;72813.91;5130709;27;20247;-76
2023/10/08 03:25:41;;;;;;;16.30;8.30;;;;;;;-143.21;54.04;72819.84;5131943;27;20202;-75
2023/10/08 03:28:12;;;;;;;15.27;7.67;;;;;;;-143.21;54.64;72831.75;5137730;27;20653;-76
2023/10/08 03:30:49;;;;;;;14.70;6.70;;;;;;;-143.21;54.22;72831.75;5137402;27;20198;-75
2023/10/08 03:33:22;;;;;;;12.17;7.40;;;;;;;-143.21;54.46;72825.81;5132351;27;20255;-75
2023/10/08 03:35:52;;;;;;;19.00;7.27;;;;;;;-143.21;54.69;72831.75;5131912;27;20195;-75
2023/10/08 03:38:27;;;;;;;13.33;7.40;;;;;;;-143.21;54.95;72831.75;5132179;27;20210;-75
2023/10/08 03:40:58;;;;;;;15.73;7.50;;;;;;;-143.21;55.33;72823.81;5131650;27;20263;-75
2023/10/08 03:43:33;;;;;;;16.67;7.73;;;;;;;-143.21;55.56;72831.75;5127879;27;20628;-75
2023/10/08 03:46:05;;;;;;;17.00;7.93;;;;;;;-143.21;55.46;72831.75;5132114;27;20203;-75
2023/10/08 03:48:36;;;;;;;20.33;7.47;;;;;;;-143.21;55.61;72827.78;5139127;27;20203;-76
2023/10/08 03:51:11;;;;;;;12.53;7.33;;;;;;;-143.21;55.84;72843.66;5141040;27;20234;-76
2023/10/08 03:53:56;;;;;;;14.60;7.40;;;;;;;-143.21;56.03;72851.59;5134014;27;20710;-76
2023/10/08 03:56:24;;;;;;;17.77;8.27;;;;;;;-143.21;55.85;72839.69;5145654;27;20289;-75
2023/10/08 03:58:53;;;;;;;15.30;8.00;;;;;;;-143.21;55.86;72839.69;5138420;27;20222;-76
2023/10/08 04:01:24;;;;;;;16.87;7.47;;;;;;;-143.21;56.02;72835.72;5129658;27;20203;-76
2023/10/08 04:03:58;;;;;;;20.10;8.07;;;;;;;-143.21;56.29;72831.75;5134637;27;20553;-77
2023/10/08 04:06:30;;;;;;;22.53;8.17;;;;;;;-143.21;56.42;72831.75;5139538;27;20194;-77
2023/10/08 04:09:11;;;;;;;15.80;8.20;;;;;;;-143.21;56.77;72841.69;5134461;27;20633;-76
2023/10/08 04:11:51;;;;;;;18.47;9.57;;;;;;;-143.21;56.66;72845.63;5141936;27;20279;-77
2023/10/08 04:14:19;;;;;;;21.27;9.83;;;;;;;-143.21;57.02;72847.63;5142274;27;20596;-77
2023/10/08 04:16:51;;;;;;;15.20;8.27;;;;;;;-143.21;56.92;72851.59;5134700;27;20210;-76
2023/10/08 04:19:19;;;;;;;18.50;8.80;;;;;;;-143.21;56.87;72853.56;5131692;27;20235;-75
2023/10/08 04:21:53;;;;;;;17.33;9.03;;;;;;;-143.21;57.40;72851.59;5141305;27;20237;-76
2023/10/08 04:24:27;;;;;;;21.47;8.77;;;;;;;-143.21;56.98;72855.56;5134916;27;20198;-76
2023/10/08 04:26:58;;;;;;;19.23;8.47;;;;;;;-143.21;57.24;72849.59;5138054;27;20286;-76
2023/10/08 04:29:25;;;;;;;28.37;9.13;;;;;;;-143.21;57.90;72863.50;5135130;27;20231;-76
2023/10/08 04:32:07;;;;;;;26.10;9.53;;;;;;;-143.21;57.91;72855.56;5141364;27;20198;-76
2023/10/08 04:34:34;;;;;;;17.53;9.43;;;;;;;-143.21;57.84;72851.59;5140505;27;20195;-76
2023/10/08 04:37:03;;;;;;;16.77;8.60;;;;;;;-143.21;57.74;72857.53;5136878;27;20214;-77
2023/10/08 04:39:33;;;;;;;18.33;9.30;;;;;;;-143.21;57.92;72859.53;5134663;27;20682;-77
2023/10/08 04:42:06;;;;;;;19.17;9.83;;;;;;;-143.21;57.98;72859.53;5137638;27;20214;-77
2023/10/08 04:44:33;;;;;;;17.63;9.60;;;;;;;-143.21;57.90;72873.41;5131299;27;20188;-77
2023/10/08 04:47:06;;;;;;;18.37;9.53;;;;;;;-143.21;58.29;72877.38;5134098;27;20586;-77
2023/10/08 04:49:34;;;;;;;21.63;9.27;;;;;;;-143.21;58.16;72875.41;5134449;27;20191;-77
2023/10/08 04:52:05;;;;;;;24.27;9.80;;;;;;;-143.21;58.46;72881.34;5134298;27;20584;-74
2023/10/08 04:54:32;;;;;;;20.33;8.70;;;;;;;-143.21;57.95;72877.38;5133788;27;20238;-76
2023/10/08 04:57:00;;;;;;;19.07;8.43;;;;;;;-143.21;57.56;72873.41;5140778;27;20197;-77
2023/10/08 04:59:32;;;;;;;18.20;8.37;;;;;;;-143.21;58.45;72885.31;5141578;27;20714;-77
2023/10/08 05:02:19;;;;;;;18.57;7.00;;;;;;;-143.21;58.26;72891.25;5135499;27;20203;-77
2023/10/08 05:04:56;;;;;;;17.97;8.37;;;;;;;-143.21;58.26;72887.28;5133979;27;20218;-79
2023/10/08 05:07:40;;;;;;;17.77;8.07;;;;;;;-143.21;58.40;72887.28;5134726;27;20217;-79
2023/10/08 05:10:11;;;;;;;17.07;8.13;;;;;;;-143.21;57.92;72877.38;5132636;27;20310;-80
2023/10/08 05:12:46;;;;;;;19.50;7.70;;;;;;;-143.21;57.56;72869.44;5107231;27;20365;-76
2023/10/08 05:15:33;;;;;;;14.93;7.70;;;;;;;-143.21;57.57;72869.44;5128996;27;20207;-76
2023/10/08 05:18:13;;;;;;;15.93;7.27;;;;;;;-143.21;57.15;72869.44;5130916;27;20325;-76
2023/10/08 05:26:20;;;;;;;19.87;7.47;;;;;;;-143.21;57.18;72859.53;5135946;27;20187;-77
2023/10/08 05:28:46;;;;;;;14.40;7.23;;;;;;;-143.21;56.87;72855.56;5137904;27;20202;-78
2023/10/08 05:31:36;;;;;;;14.70;6.87;;;;;;;-143.21;56.81;72853.56;5137412;27;20211;-79
2023/10/08 05:34:14;;;;;;;16.70;7.63;;;;;;;-143.21;56.37;72847.63;5137163;27;20251;-78
2023/10/08 05:37:10;;;;;;;12.70;7.00;;;;;;;-143.21;56.52;72849.59;5138020;27;20195;-80
2023/10/08 05:39:40;;;;;;;12.60;6.43;;;;;;;-143.21;56.45;72839.69;5146523;27;20311;-77
2023/10/08 05:42:16;;;;;;;14.47;7.33;;;;;;;-143.21;56.04;72835.72;5137680;27;20198;-77
2023/10/08 05:44:46;;;;;;;17.13;7.73;;;;;;;-143.21;56.02;72823.81;5137356;27;20306;-77
2023/10/08 05:47:37;;;;;;;19.10;7.83;;;;;;;-143.21;55.93;72831.75;5140233;27;20211;-77
2023/10/08 05:53:01;;;;;;;20.67;7.73;;;;;;;-143.21;55.67;72827.78;5131436;27;20326;-77
2023/10/08 05:55:34;;;;;;;10.43;7.20;;;;;;;-143.21;55.51;72825.81;5130929;27;20199;-76
2023/10/08 05:58:24;;;;;;;16.43;8.10;;;;;;;-143.21;55.09;72817.88;5136700;27;20221;-77
2023/10/08 06:01:08;;;;;;;29.70;8.43;;;;;;;-143.21;55.00;72815.88;5133244;27;20208;-77
2023/10/08 06:03:48;;;;;;;13.40;7.73;;;;;;;-143.21;54.98;72800.03;5142421;27;20207;-77
2023/10/08 06:06:46;;;;;;;20.27;7.80;;;;;;;-143.21;55.32;72804.00;5144736;27;20210;-77
2023/10/08 06:09:21;;;;;;;20.10;7.53;;;;;;;-143.21;55.20;72800.03;5139924;27;20209;-77
2023/10/08 06:12:09;;;;;;;13.80;7.43;;;;;;;-143.21;55.03;72782.16;5141080;27;20596;-77
2023/10/08 06:14:52;;;;;;;16.17;7.87;;;;;;;-143.21;54.56;72772.25;5136696;27;20297;-77
2023/10/08 06:17:34;;;;;;;17.00;7.93;;;;;;;-143.21;54.62;72750.44;5143167;27;20224;-77
2023/10/08 06:20:09;;;;;;;16.23;8.30;;;;;;;-143.21;54.31;72750.44;5129064;27;20567;-77
2023/10/08 06:22:38;;;;;;;18.63;8.30;;;;;;;-143.21;54.33;72732.59;5136464;27;20591;-77
2023/10/08 06:25:22;;;;;;;15.87;8.50;;;;;;;-143.21;54.71;72728.63;5141630;27;20294;-77
2023/10/08 06:27:53;;;;;;;20.33;8.93;;;;;;;-143.21;54.72;72730.59;5140303;27;20633;-78
2023/10/08 06:30:21;;;;;;;21.83;8.13;;;;;;;-143.21;54.64;72726.63;5132872;27;20272;-78
2023/10/08 06:32:50;;;;;;;17.47;9.27;;;;;;;-143.21;54.19;72706.81;5132729;27;20238;-77
2023/10/08 06:35:18;;;;;;;16.10;8.13;;;;;;;-143.21;54.09;72696.88;5135435;27;20207;-78
2023/10/08 06:37:49;;;;;;;19.03;8.77;;;;;;;-143.21;53.81;72694.91;5147118;27;20203;-78
2023/10/08 06:43:21;;;;;;;17.00;7.60;;;;;;;-143.21;53.56;72679.03;5146402;27;20549;-77
2023/10/08 06:45:52;;;;;;;14.40;8.07;;;;;;;-143.21;53.12;72675.06;5147200;27;20217;-78
2023/10/08 06:48:20;;;;;;;17.67;8.13;;;;;;;-143.21;53.04;72655.25;5147113;27;20206;-76
2023/10/08 06:50:47;;;;;;;22.07;7.57;;;;;;;-143.21;52.99;72653.25;5147714;27;20209;-76
2023/10/08 06:53:14;;;;;;;16.73;7.30;;;;;;;-143.21;52.83;72645.31;5147334;27;20665;-77
2023/10/08 06:55:43;;;;;;;13.60;7.30;;;;;;;-143.21;52.80;72643.34;5146593;27;20469;-78
2023/10/08 06:58:14;;;;;;;14.83;7.17;;;;;;;-143.21;52.52;72629.44;5147178;27;20194;-77
2023/10/08 07:00:46;;;;;;;13.90;6.90;;;;;;;-143.21;52.78;72619.53;5147366;27;20377;-77
2023/10/08 07:03:15;;;;;;;12.13;6.93;;;;;;;-143.21;52.57;72605.66;5147097;27;20903;-77
2023/10/08 07:05:44;;;;;;;14.53;6.90;;;;;;;-143.21;52.49;72595.75;5147190;27;20659;-77
2023/10/08 07:08:14;;;;;;;11.83;6.93;;;;;;;-143.21;52.23;72583.84;5146738;27;20234;-77
2023/10/08 07:10:46;;;;;;;15.23;7.77;;;;;;;-143.21;52.05;72550.13;5147471;27;20202;-78
2023/10/08 07:13:17;;;;;;;15.57;7.80;;;;;;;-143.21;51.52;72526.31;5146355;27;20209;-77
2023/10/08 07:15:44;;;;;;;20.27;8.23;;;;;;;-143.21;51.70;72522.34;5147119;27;20293;-77
2023/10/08 07:18:12;;;;;;;14.37;8.27;;;;;;;-143.21;51.39;72500.53;5146479;27;20715;-77
2023/10/08 07:20:41;;;;;;;15.17;7.50;;;;;;;-143.21;51.25;72490.63;5146634;27;20313;-77
2023/10/08 07:23:18;;;;;;;17.20;7.80;;;;;;;-143.21;51.18;72480.72;5146373;27;20712;-76
2023/10/08 07:25:53;;;;;;;19.67;8.27;;;;;;;-143.21;50.64;72456.91;5145995;27;20765;-77
2023/10/08 07:28:21;;;;;;;15.37;7.17;;;;;;;-143.21;50.46;72441.03;5146463;27;20194;-77
2023/10/08 07:30:49;;;;;;;14.77;7.17;;;;;;;-143.21;50.23;72423.19;5146411;27;20214;-77
2023/10/08 07:33:19;;;;;;;18.30;7.53;;;;;;;-143.21;49.66;72399.41;5146143;27;20748;-76
2023/10/08 07:35:57;;;;;;;12.50;6.87;;;;;;;-143.21;51.05;72383.53;5147425;27;20232;-81
2023/10/08 07:38:28;;;;;;;21.77;7.47;;;;;;;-143.21;49.81;72353.78;5147515;27;20197;-81
2023/10/08 07:40:56;;;;;;;18.23;7.10;;;;;;;-143.21;47.63;72322.06;5144094;27;20721;-80
2023/10/08 07:43:24;;;;;;;9.97;4.97;;;;;;;-143.21;46.55;72282.38;5143303;27;20221;-83
2023/10/08 07:45:53;;;;;;;9.97;4.13;;;;;;;-143.21;40.41;72220.91;5144510;27;20214;-82
2023/10/08 07:48:22;;;;;;;11.63;3.70;;;;;;;-143.21;41.54;72167.38;5148300;27;20226;-87
2023/10/08 07:50:50;;;;;;;10.50;4.07;;;;;;;-143.21;37.99;72101.94;5147753;27;20210;-84
2023/10/08 07:53:37;;;;;;;9.73;4.03;;;;;;;-143.21;37.51;72030.53;5140304;27;20203;-85
2023/10/08 07:56:06;;;;;;;9.95;4.30;;;;;;;-143.21;36.13;71994.84;5131765;27;20223;-85
2023/10/08 07:58:35;;;;;;;10.68;4.32;;;;;;;-143.21;35.40;71977.00;5134059;27;20191;-85
2023/10/08 08:01:06;;;;;;;7.82;3.90;;;;;;;-143.21;34.90;71959.16;5133380;27;20211;-85
2023/10/08 08:03:35;;;;;;;8.18;3.85;;;;;;;-143.21;36.75;71927.44;5133674;27;20279;-85
2023/10/08 08:06:02;;;;;;;9.65;3.88;;;;;;;-143.21;33.75;71887.78;5133840;27;20226;-85
2023/10/08 08:08:29;;;;;;;20.02;4.32;;;;;;;-143.21;33.91;71869.91;5133425;27;20195;-85
2023/10/08 08:10:57;;;;;;;14.02;4.15;;;;;;;-143.21;33.53;71854.06;5131982;27;20200;-82
2023/10/08 08:13:28;;;;;;;6.18;3.60;;;;;;;-143.21;35.61;71852.06;5129712;27;20195;-84
2023/10/08 08:16:09;;;;;;;11.80;4.10;;;;;;;-143.21;33.06;71832.25;5129666;27;20288;-80
2023/10/08 08:18:37;;;;;;;8.30;4.25;;;;;;;-143.21;32.99;71816.38;5131042;27;20734;-81
2023/10/08 08:21:05;;;;;;;14.13;4.32;;;;;;;-143.21;32.89;71796.56;5132598;27;20199;-80
2023/10/08 08:23:32;;;;;;;8.80;4.10;;;;;;;-143.21;33.09;71786.63;5132622;27;20720;-80
2023/10/08 08:26:11;;;;;;;9.77;4.10;;;;;;;-143.21;32.35;71764.81;5133564;27;20203;-81
2023/10/08 08:28:39;;;;;;;11.43;4.22;;;;;;;-143.21;32.22;71739.06;5132397;27;20722;-80
2023/10/08 08:31:14;;;;;;;10.18;4.15;;;;;;;-143.21;31.93;71715.25;5132684;27;20203;-81
2023/10/08 08:33:53;;;;;;;12.10;4.25;;;;;;;-143.21;32.03;71699.41;5132412;27;20661;-79
2023/10/08 08:36:21;;;;;;;9.57;4.60;;;;;;;-143.21;31.30;71673.63;5132893;27;20191;-79
2023/10/08 08:38:48;;;;;;;10.68;4.35;;;;;;;-143.21;31.06;71641.91;5131996;27;20227;-79
2023/10/08 08:41:17;;;;;;;11.93;4.40;;;;;;;-143.21;31.28;71624.06;5131566;27;20307;-83
2023/10/08 08:43:47;;;;;;;6.85;3.90;;;;;;;-143.21;30.72;71588.38;5132201;27;20694;-83
2023/10/08 08:46:15;;;;;;;9.38;4.15;;;;;;;-143.21;30.31;71560.59;5132876;27;21023;-85
2023/10/08 08:48:44;;;;;;;15.73;4.32;;;;;;;-143.21;30.55;71526.91;5132451;27;20291;-84
2023/10/08 08:51:12;;;;;;;10.27;4.40;;;;;;;-143.21;29.87;71499.13;5132157;27;20232;-81
2023/10/08 08:53:39;;;;;;;10.93;4.85;;;;;;;-143.21;29.54;71481.28;5131671;27;20195;-82
2023/10/08 08:56:10;;;;;;;14.45;4.57;;;;;;;-143.21;29.64;71471.38;5132819;27;20200;-80
2023/10/08 08:58:39;;;;;;;9.93;4.60;;;;;;;-143.21;29.60;71473.38;5133040;27;20203;-80
2023/10/08 09:01:09;;;;;;;14.00;4.43;;;;;;;-143.21;29.60;71497.16;5132622;27;20633;-83
2023/10/08 09:03:37;;;;;;;7.88;3.92;;;;;;;-143.21;29.73;71526.91;5133422;27;20619;-84
2023/10/08 09:06:06;;;;;;;9.13;4.28;;;;;;;-143.21;29.91;71526.91;5131843;27;20260;-84
2023/10/08 09:08:37;;;;;;;10.25;4.43;;;;;;;-143.21;30.31;71520.94;5132523;27;20238;-83
2023/10/08 09:11:05;;;;;;;11.90;4.72;;;;;;;-143.21;29.84;71513.03;5132074;27;20219;-80
2023/10/08 09:13:34;;;;;;;10.45;4.70;;;;;;;-143.21;29.76;71463.44;5131125;27;20278;-81
2023/10/08 09:16:08;;;;;;;6.55;4.03;;;;;;;-143.21;29.57;71407.94;5130747;27;20203;-80
2023/10/08 09:18:37;;;;;;;11.13;4.60;;;;;;;-143.21;28.99;71374.22;5130618;27;20587;-80
2023/10/08 09:21:12;;;;;;;8.32;4.35;;;;;;;-143.21;28.91;71366.31;5130739;27;20641;-80
2023/10/08 09:23:47;;;;;;;8.93;4.60;;;;;;;-143.21;28.43;71326.66;5131024;27;20221;-80
2023/10/08 09:26:15;;;;;;;8.68;4.40;;;;;;;-143.21;28.61;71285.03;5130498;27;20213;-81
2023/10/08 09:28:46;;;;;;;6.90;4.00;;;;;;;-143.21;28.10;71259.25;5131244;27;20207;-80
2023/10/08 09:31:13;;;;;;;7.38;4.65;;;;;;;-143.21;28.00;71275.09;5130576;27;20908;-80
2023/10/08 09:33:42;;;;;;;11.77;4.32;;;;;;;-143.21;28.28;71265.19;5130379;27;20199;-80
2023/10/08 09:36:18;;;;;;;7.97;3.95;;;;;;;-143.21;28.08;71304.84;5130746;27;20675;-79
2023/10/08 09:38:48;;;;;;;9.52;4.22;;;;;;;-143.21;28.11;71304.84;5131521;27;20692;-80
2023/10/08 09:41:18;;;;;;;11.43;4.53;;;;;;;-143.21;28.21;71294.94;5129874;27;20740;-81
2023/10/08 09:43:47;;;;;;;7.43;4.20;;;;;;;-143.21;28.13;71261.22;5130067;27;20230;-81
2023/10/08 09:46:19;;;;;;;12.50;4.13;;;;;;;-143.21;28.18;71273.13;5130286;27;20207;-80
2023/10/08 09:48:52;;;;;;;10.27;4.55;;;;;;;-143.21;28.13;71302.84;5130749;27;20264;-80
2023/10/08 09:51:19;;;;;;;9.85;4.55;;;;;;;-143.21;28.47;71342.50;5131525;27;20202;-81
2023/10/08 09:53:54;;;;;;;8.15;4.30;;;;;;;-143.21;28.79;71368.28;5131858;27;20195;-81
2023/10/08 09:56:21;;;;;;;8.07;4.43;;;;;;;-143.21;29.39;71388.09;5131370;27;20286;-82
2023/10/08 09:58:50;;;;;;;7.57;4.38;;;;;;;-143.21;29.33;71407.94;5131785;27;20658;-81
2023/10/08 10:01:19;;;;;;;7.05;4.47;;;;;;;-143.21;29.33;71419.84;5130541;27;20214;-80
2023/10/08 10:03:47;;;;;;;9.85;4.72;;;;;;;-143.21;29.62;71429.75;5131102;27;20276;-80
2023/10/08 10:06:17;;;;;;;9.15;4.47;;;;;;;-143.21;29.67;71429.75;5130507;27;20211;-81
2023/10/08 10:08:45;;;;;;;12.95;4.65;;;;;;;-143.21;29.70;71433.72;5130882;27;20211;-80
2023/10/08 10:11:12;;;;;;;14.15;4.50;;;;;;;-143.21;30.20;71467.41;5129589;27;21596;-80
2023/10/08 10:13:41;;;;;;;8.70;4.53;;;;;;;-143.21;30.17;71423.78;5130369;27;20677;-80
2023/10/08 10:16:08;;;;;;;9.10;4.00;;;;;;;-143.21;28.97;71338.53;5129910;27;20653;-80
2023/10/08 10:18:35;;;;;;;6.68;3.58;;;;;;;-143.21;28.10;71259.25;5130521;27;20221;-81
2023/10/08 10:21:32;;;;;;;8.98;3.53;;;;;;;-143.21;27.71;71187.88;5130285;27;20279;-80
2023/10/08 10:24:00;;;;;;;6.55;3.88;;;;;;;-143.21;27.41;71124.44;5128336;27;20230;-81
2023/10/08 10:26:30;;;;;;;10.75;4.55;;;;;;;-143.21;27.08;71059.00;5130271;27;20577;-85
2023/10/08 10:29:26;;;;;;;10.55;4.93;;;;;;;-143.21;26.78;70991.63;5130960;27;20195;-81
2023/10/08 10:31:54;;;;;;;9.02;4.28;;;;;;;-143.21;26.50;70932.13;5128108;27;20271;-81
2023/10/08 10:34:24;;;;;;;9.65;4.25;;;;;;;-143.21;26.31;70896.47;5131261;27;20263;-81
2023/10/08 10:36:58;;;;;;;10.93;4.10;;;;;;;-143.21;26.43;70876.63;5127519;27;20199;-82
2023/10/08 10:39:30;;;;;;;8.43;3.60;;;;;;;-143.21;26.67;70908.34;5127126;27;20224;-80
2023/10/08 10:42:06;;;;;;;7.32;3.97;;;;;;;-143.21;27.01;70920.25;5126992;28;20288;-80
2023/10/08 10:44:36;;;;;;;10.85;4.10;;;;;;;-143.21;27.08;70876.63;5130199;28;20202;-79
2023/10/08 10:47:26;;;;;;;16.33;4.10;;;;;;;-143.21;26.98;70870.69;5130015;28;20207;-79
2023/10/08 10:50:10;;;;;;;5.72;3.85;;;;;;;-143.21;26.81;70835.00;5126991;28;20207;-79
2023/10/08 10:52:45;;;;;;;11.25;4.32;;;;;;;-143.21;26.16;70785.44;5129976;28;20286;-79
2023/10/08 10:55:23;;;;;;;12.23;4.20;;;;;;;-143.21;26.70;70833.03;5129954;28;20245;-80
2023/10/08 11:03:23;;;;;;;11.57;3.92;;;;;;;-143.21;26.68;70844.91;5115702;28;20227;-81
2023/10/08 11:05:54;;;;;;;9.48;4.00;;;;;;;-143.21;26.71;70829.06;5130614;28;20198;-80
2023/10/08 11:08:24;;;;;;;13.65;3.97;;;;;;;-143.21;26.66;70809.25;5129690;28;20669;-80
2023/10/08 11:10:53;;;;;;;14.05;3.88;;;;;;;-143.21;26.26;70759.69;5125845;28;20195;-81
2023/10/08 11:13:21;;;;;;;7.82;3.72;;;;;;;-143.21;26.53;70882.59;5129537;28;20199;-80
2023/10/08 11:15:51;;;;;;;7.03;3.75;;;;;;;-143.21;27.25;70971.78;5130692;28;20196;-81
2023/10/08 11:21:15;;;;;;;11.10;3.85;;;;;;;-143.21;28.04;71027.28;5126535;28;20222;-80
2023/10/08 11:23:52;;;;;;;12.88;3.88;;;;;;;-143.21;27.96;71023.34;5130319;28;20709;-81
2023/10/08 11:26:19;;;;;;;6.88;3.65;;;;;;;-143.21;28.18;71023.34;5130039;28;20203;-81
2023/10/08 11:28:47;;;;;;;8.07;3.80;;;;;;;-143.21;28.34;71021.34;5132396;27;20203;-83
2023/10/08 11:31:19;;;;;;;7.68;3.30;;;;;;;-143.21;28.76;71074.88;5134297;27;20272;-81
2023/10/08 11:33:53;;;;;;;14.60;4.28;;;;;;;-143.21;29.15;71104.59;5134709;27;20625;-81
2023/10/08 11:36:27;;;;;;;12.30;3.70;;;;;;;-143.21;29.44;71116.50;5134697;27;20194;-83
2023/10/08 11:39:00;;;;;;;11.75;3.53;;;;;;;-143.21;29.44;71118.50;5132144;27;20270;-83
2023/10/08 11:41:28;;;;;;;12.20;4.00;;;;;;;-143.21;30.03;71142.28;5138483;27;20242;-86
2023/10/08 11:43:58;;;;;;;9.95;4.32;;;;;;;-143.21;29.91;71160.13;5141766;27;20301;-88
2023/10/08 11:46:27;;;;;;;12.07;3.70;;;;;;;-143.21;30.14;71187.88;5131804;27;20210;-82
2023/10/08 11:48:57;;;;;;;11.13;4.15;;;;;;;-143.21;30.75;71219.59;5130471;27;20264;-83
2023/10/08 11:51:24;;;;;;;11.68;3.97;;;;;;;-143.21;30.91;71253.28;5134572;27;20294;-84
2023/10/08 11:53:53;;;;;;;11.63;3.80;;;;;;;-143.21;31.19;71261.22;5131836;27;20194;-83